createdAt,value
2019-03-22T00:01:52.152Z,13.33
2019-03-22T00:04:22.692Z,14.03
2019-03-22T00:06:55.021Z,12.87
2019-03-22T00:09:25.478Z,13.37
2019-03-22T00:11:55.844Z,12.93
2019-03-22T00:14:26.229Z,13.60
2019-03-22T00:16:56.553Z,11.83
2019-03-22T00:19:27.561Z,13.10
2019-03-22T00:21:57.919Z,10.30
2019-03-22T00:24:28.488Z,13.57
2019-03-22T00:27:01.198Z,10.97
2019-03-22T00:29:30.638Z,12.77
2019-03-22T00:32:00.999Z,14.53
2019-03-22T00:34:30.363Z,13.80
2019-03-22T00:37:00.829Z,14.47
2019-03-22T00:39:33.391Z,11.90
2019-03-22T00:42:05.964Z,13.00
2019-03-22T00:44:36.027Z,12.30
2019-03-22T00:47:06.504Z,12.80
2019-03-22T00:49:37.102Z,13.73
2019-03-22T00:52:09.008Z,12.60
2019-03-22T00:54:39.579Z,13.60
2019-03-22T00:57:10.151Z,14.50
2019-03-22T00:59:40.717Z,12.67
2019-03-22T01:02:14.016Z,13.13
2019-03-22T01:04:44.740Z,13.03
2019-03-22T01:07:22.934Z,13.23
2019-03-22T01:09:53.584Z,13.70
2019-03-22T01:12:25.853Z,13.47
2019-03-22T01:14:55.397Z,14.40
2019-03-22T01:17:25.799Z,12.77
2019-03-22T01:19:58.218Z,13.13
2019-03-22T01:22:30.199Z,13.63
2019-03-22T01:25:02.934Z,13.73
2019-03-22T01:27:40.494Z,12.57
2019-03-22T01:30:09.075Z,14.57
2019-03-22T01:32:43.694Z,12.97
2019-03-22T01:35:14.664Z,12.53
2019-03-22T01:37:46.216Z,13.23
2019-03-22T01:40:17.359Z,12.77
2019-03-22T01:42:48.890Z,13.00
2019-03-22T01:45:19.291Z,13.50
2019-03-22T01:47:49.780Z,13.23
2019-03-22T01:50:20.778Z,13.30
2019-03-22T01:52:51.539Z,11.50
2019-03-22T01:55:23.961Z,12.00
2019-03-22T01:57:56.745Z,13.20
2019-03-22T02:00:27.146Z,12.70
2019-03-22T02:02:56.536Z,12.83
2019-03-22T02:05:26.918Z,13.73
2019-03-22T02:07:57.189Z,12.07
2019-03-22T02:10:27.609Z,11.17
2019-03-22T02:12:57.973Z,13.80
2019-03-22T02:15:29.769Z,13.40
2019-03-22T02:18:00.288Z,12.00
2019-03-22T02:20:30.997Z,13.40
2019-03-22T02:23:04.128Z,12.07
2019-03-22T02:25:34.552Z,11.63
2019-03-22T02:28:05.078Z,12.73
2019-03-22T02:30:35.344Z,13.23
2019-03-22T02:33:05.739Z,11.53
2019-03-22T02:35:36.018Z,12.17
2019-03-22T02:38:09.042Z,13.60
2019-03-22T02:40:39.368Z,15.33
2019-03-22T02:43:09.884Z,14.57
2019-03-22T02:45:40.307Z,13.27
2019-03-22T02:48:10.636Z,10.50
2019-03-22T02:50:40.959Z,9.40
2019-03-22T02:53:11.512Z,11.30
2019-03-22T02:55:41.789Z,8.67
2019-03-22T02:58:20.498Z,9.73
2019-03-22T03:00:45.813Z,8.50
2019-03-22T03:03:16.096Z,10.83
2019-03-22T03:05:46.418Z,8.77
2019-03-22T03:08:16.911Z,9.87
2019-03-22T03:10:47.275Z,8.87
2019-03-22T03:13:17.923Z,7.50
2019-03-22T03:15:48.126Z,6.67
2019-03-22T03:18:20.722Z,8.03
2019-03-22T03:20:50.086Z,10.63
2019-03-22T03:23:22.860Z,9.87
2019-03-22T03:25:53.478Z,10.63
2019-03-22T03:28:35.956Z,8.17
2019-03-22T03:30:57.561Z,9.23
2019-03-22T03:33:28.359Z,9.70
2019-03-22T03:35:58.766Z,9.33
2019-03-22T03:38:28.225Z,11.00
2019-03-22T03:41:02.592Z,9.97
2019-03-22T03:43:33.037Z,12.27
2019-03-22T03:46:05.583Z,9.27
2019-03-22T03:48:38.287Z,6.50
2019-03-22T03:51:13.898Z,9.53
2019-03-22T03:53:43.394Z,8.83
2019-03-22T03:56:15.084Z,8.43
2019-03-22T03:58:52.642Z,7.90
2019-03-22T04:01:21.499Z,6.00
2019-03-22T04:03:52.408Z,12.03
2019-03-22T04:06:23.042Z,6.67
2019-03-22T04:08:55.940Z,7.10
2019-03-22T04:11:26.327Z,10.73
2019-03-22T04:13:56.784Z,8.40
2019-03-22T04:16:27.253Z,10.57
2019-03-22T04:18:57.684Z,10.60
2019-03-22T04:21:28.414Z,9.57
2019-03-22T04:23:58.814Z,9.37
2019-03-22T04:26:30.711Z,12.40
2019-03-22T04:29:07.478Z,8.10
2019-03-22T04:31:33.408Z,10.73
2019-03-22T04:34:05.250Z,9.07
2019-03-22T04:36:35.719Z,7.70
2019-03-22T04:39:09.132Z,11.50
2019-03-22T04:41:39.890Z,9.87
2019-03-22T04:44:10.413Z,7.90
2019-03-22T04:46:43.413Z,7.90
2019-03-22T04:49:15.356Z,9.67
2019-03-22T04:51:46.420Z,10.20
2019-03-22T04:54:19.538Z,9.87
2019-03-22T04:56:52.297Z,8.90
2019-03-22T04:59:23.848Z,4.27
2019-03-22T05:01:56.531Z,7.10
2019-03-22T05:04:30.722Z,5.83
2019-03-22T05:07:01.677Z,7.73
2019-03-22T05:09:35.104Z,5.07
2019-03-22T05:12:06.374Z,2.07
2019-03-22T05:14:41.874Z,4.23
2019-03-22T05:17:15.990Z,4.57
2019-03-22T05:20:05.763Z,4.20
2019-03-22T05:22:44.968Z,3.47
2019-03-22T05:25:16.039Z,4.93
2019-03-22T05:27:48.909Z,5.50
2019-03-22T05:31:02.971Z,4.57
2019-03-22T05:33:33.706Z,4.30
2019-03-22T05:36:06.569Z,5.30
2019-03-22T05:38:39.481Z,5.07
2019-03-22T05:41:10.137Z,3.67
2019-03-22T05:43:45.069Z,4.80
2019-03-22T05:46:15.614Z,4.70
2019-03-22T05:48:47.133Z,5.50
2019-03-22T05:51:18.833Z,4.87
2019-03-22T05:53:49.258Z,5.00
2019-03-22T05:56:19.819Z,5.20
2019-03-22T05:58:50.552Z,5.53
2019-03-22T06:01:21.003Z,5.40
2019-03-22T06:03:51.541Z,5.33
2019-03-22T06:06:22.190Z,5.23
2019-03-22T06:09:00.249Z,5.50
2019-03-22T06:11:32.036Z,4.53
2019-03-22T06:14:03.803Z,3.27
2019-03-22T06:16:34.473Z,4.07
2019-03-22T06:19:04.228Z,4.73
2019-03-22T06:21:37.261Z,4.30
2019-03-22T06:24:10.494Z,4.63
2019-03-22T06:26:41.137Z,2.97
2019-03-22T06:29:13.086Z,3.80
2019-03-22T06:31:46.953Z,3.20
2019-03-22T06:34:17.401Z,4.87
2019-03-22T06:36:50.139Z,2.93
2019-03-22T06:39:23.557Z,3.50
2019-03-22T06:41:54.267Z,3.93
2019-03-22T06:44:27.220Z,4.50
2019-03-22T06:46:57.767Z,4.40
2019-03-22T06:49:30.695Z,5.40
2019-03-22T06:52:02.116Z,6.30
2019-03-22T06:54:32.675Z,2.00
2019-03-22T06:57:09.305Z,4.00
2019-03-22T06:59:39.745Z,4.43
2019-03-22T07:02:09.116Z,4.53
2019-03-22T07:04:41.978Z,4.30
2019-03-22T07:07:12.705Z,4.27
2019-03-22T07:09:43.122Z,5.17
2019-03-22T07:12:13.747Z,4.33
2019-03-22T07:14:45.081Z,4.60
2019-03-22T07:17:16.410Z,4.90
2019-03-22T07:19:46.596Z,4.93
2019-03-22T07:22:19.848Z,4.17
2019-03-22T07:24:57.920Z,3.77
2019-03-22T07:27:25.647Z,3.13
2019-03-22T07:29:56.256Z,3.50
2019-03-22T07:32:28.217Z,3.53
2019-03-22T07:35:01.027Z,2.70
2019-03-22T07:37:31.487Z,4.23
2019-03-22T07:40:01.945Z,4.03
2019-03-22T07:42:31.416Z,3.67
2019-03-22T07:45:02.296Z,3.37
2019-03-22T07:47:32.895Z,2.60
2019-03-22T07:50:03.419Z,3.00
2019-03-22T07:52:33.988Z,1.43
2019-03-22T07:55:05.064Z,2.40
2019-03-22T07:57:38.907Z,2.87
2019-03-22T08:00:15.822Z,3.17
2019-03-22T08:02:49.108Z,2.90
2019-03-22T08:05:19.495Z,2.97
2019-03-22T08:07:49.806Z,3.30
2019-03-22T08:10:20.096Z,3.17
2019-03-22T08:12:50.425Z,3.40
2019-03-22T08:15:31.804Z,2.93
2019-03-22T08:18:01.381Z,2.73
2019-03-22T08:20:31.108Z,3.07
2019-03-22T08:23:00.930Z,4.20
2019-03-22T08:25:32.558Z,3.90
2019-03-22T08:28:03.191Z,3.50
2019-03-22T08:30:42.481Z,2.43
2019-03-22T08:33:07.385Z,1.97
2019-03-22T08:35:36.747Z,3.23
2019-03-22T08:38:07.091Z,2.00
2019-03-22T08:40:37.810Z,2.60
2019-03-22T08:43:09.707Z,2.60
2019-03-22T08:45:40.914Z,2.87
2019-03-22T08:48:11.258Z,2.53
2019-03-22T08:50:41.776Z,2.40
2019-03-22T08:53:12.480Z,2.90
2019-03-22T08:55:42.774Z,5.57
2019-03-22T08:58:13.438Z,3.10
2019-03-22T09:00:56.674Z,2.77
2019-03-22T09:03:16.019Z,2.80
2019-03-22T09:05:46.386Z,3.30
2019-03-22T09:08:16.677Z,3.13
2019-03-22T09:10:47.097Z,2.83
2019-03-22T09:13:16.433Z,3.17
2019-03-22T09:15:46.772Z,6.97
2019-03-22T09:18:19.915Z,2.80
2019-03-22T09:20:50.277Z,1.87
2019-03-22T09:23:20.814Z,2.20
2019-03-22T09:25:51.108Z,2.30
2019-03-22T09:28:21.534Z,1.80
2019-03-22T09:30:52.014Z,2.37
2019-03-22T09:33:22.390Z,2.40
2019-03-22T09:35:52.680Z,1.63
2019-03-22T09:38:24.027Z,1.90
2019-03-22T09:40:54.372Z,1.40
2019-03-22T09:43:24.605Z,2.80
2019-03-22T09:45:54.845Z,7.17
2019-03-22T09:48:25.061Z,2.10
2019-03-22T09:50:55.330Z,2.30
2019-03-22T09:53:25.872Z,2.37
2019-03-22T09:55:56.255Z,2.47
2019-03-22T09:58:26.638Z,1.80
2019-03-22T10:00:57.066Z,1.93
2019-03-22T10:03:26.460Z,2.43
2019-03-22T10:05:56.827Z,1.90
2019-03-22T10:08:27.199Z,2.17
2019-03-22T10:10:57.439Z,2.77
2019-03-22T10:13:27.815Z,2.10
2019-03-22T10:15:58.158Z,2.20
2019-03-22T10:18:28.494Z,2.70
2019-03-22T10:20:58.949Z,2.43
2019-03-22T10:23:29.141Z,2.00
2019-03-22T10:25:59.511Z,2.03
2019-03-22T10:28:31.340Z,2.10
2019-03-22T10:31:01.752Z,2.00
2019-03-22T10:33:32.149Z,1.87
2019-03-22T10:36:03.958Z,1.90
2019-03-22T10:38:34.243Z,2.20
2019-03-22T10:41:04.598Z,2.00
2019-03-22T10:43:34.835Z,1.70
2019-03-22T10:46:07.861Z,2.40
2019-03-22T10:48:36.021Z,2.17
2019-03-22T10:51:06.344Z,2.30
2019-03-22T10:53:36.622Z,1.90
2019-03-22T10:56:07.291Z,2.00
2019-03-22T10:58:37.637Z,2.20
2019-03-22T11:01:08.693Z,1.97
2019-03-22T11:03:39.486Z,1.50
2019-03-22T11:06:09.885Z,1.60
2019-03-22T11:08:40.517Z,1.77
2019-03-22T11:11:10.766Z,1.73
2019-03-22T11:13:41.051Z,1.80
2019-03-22T11:16:11.742Z,1.90
2019-03-22T11:18:44.640Z,1.60
2019-03-22T11:21:14.921Z,2.27
2019-03-22T11:23:45.175Z,2.50
2019-03-22T11:26:15.608Z,2.20
2019-03-22T11:28:44.922Z,2.47
2019-03-22T11:31:15.125Z,2.23
2019-03-22T11:33:45.414Z,2.73
2019-03-22T11:36:15.645Z,3.07
2019-03-22T11:38:45.910Z,3.33
2019-03-22T11:41:16.221Z,3.40
2019-03-22T11:43:46.802Z,2.90
2019-03-22T11:46:16.966Z,2.87
2019-03-22T11:48:46.615Z,2.70
2019-03-22T11:51:17.066Z,2.70
2019-03-22T11:53:47.317Z,2.57
2019-03-22T11:56:17.775Z,2.40
2019-03-22T11:58:48.245Z,2.03
2019-03-22T12:01:21.278Z,2.07
2019-03-22T12:03:49.563Z,2.70
2019-03-22T12:06:19.870Z,2.50
2019-03-22T12:08:50.308Z,2.10
2019-03-22T12:11:20.776Z,1.87
2019-03-22T12:13:51.059Z,2.17
2019-03-22T12:16:21.398Z,1.87
2019-03-22T12:18:53.041Z,2.47
2019-03-22T12:21:23.392Z,1.70
2019-03-22T12:23:56.350Z,1.90
2019-03-22T12:26:47.064Z,1.87
2019-03-22T12:29:17.690Z,2.20
2019-03-22T12:31:48.165Z,1.97
2019-03-22T12:34:18.560Z,1.60
2019-03-22T12:36:49.016Z,2.13
2019-03-22T12:39:19.411Z,2.20
2019-03-22T12:41:59.565Z,2.60
2019-03-22T12:44:30.069Z,2.40
2019-03-22T12:47:02.223Z,2.00
2019-03-22T12:49:33.215Z,2.53
2019-03-22T12:52:03.713Z,2.20
2019-03-22T12:54:36.476Z,2.10
2019-03-22T12:57:09.615Z,2.10
2019-03-22T12:59:40.005Z,2.70
2019-03-22T13:02:10.535Z,2.23
2019-03-22T13:04:40.891Z,2.47
2019-03-22T13:07:12.428Z,2.10
2019-03-22T13:09:42.671Z,2.50
2019-03-22T13:12:13.232Z,2.70
2019-03-22T13:14:45.879Z,2.20
2019-03-22T13:19:52.167Z,1.70
2019-03-22T13:22:22.589Z,2.00
2019-03-22T13:24:55.901Z,2.27
2019-03-22T13:27:26.268Z,2.17
2019-03-22T13:29:56.830Z,2.17
2019-03-22T13:32:27.283Z,2.25
2019-03-22T13:34:57.671Z,2.20
2019-03-22T13:37:28.091Z,1.67
2019-03-22T13:39:57.637Z,1.90
2019-03-22T13:42:26.993Z,1.72
2019-03-22T13:44:57.571Z,1.75
2019-03-22T13:47:27.928Z,1.60
2019-03-22T13:49:57.457Z,1.90
2019-03-22T13:52:27.948Z,1.85
2019-03-22T13:54:58.440Z,2.05
2019-03-22T13:57:28.879Z,1.82
2019-03-22T13:59:59.256Z,1.90
2019-03-22T14:02:29.696Z,2.17
2019-03-22T14:05:01.814Z,2.05
2019-03-22T14:07:31.298Z,2.62
2019-03-22T14:10:01.699Z,2.58
2019-03-22T14:12:36.948Z,2.42
2019-03-22T14:15:04.578Z,2.47
2019-03-22T14:17:35.167Z,2.60
2019-03-22T14:20:11.086Z,2.90
2019-03-22T14:22:38.988Z,3.20
2019-03-22T14:25:11.573Z,3.27
2019-03-22T14:27:41.986Z,3.55
2019-03-22T14:30:12.559Z,3.08
2019-03-22T14:32:44.590Z,3.10
2019-03-22T14:35:13.890Z,3.05
2019-03-22T14:37:44.183Z,3.40
2019-03-22T14:40:15.810Z,3.33
2019-03-22T14:42:45.449Z,3.00
2019-03-22T14:45:15.967Z,3.33
2019-03-22T14:47:46.249Z,3.27
2019-03-22T14:50:16.733Z,2.90
2019-03-22T14:52:46.978Z,3.42
2019-03-22T14:55:17.582Z,3.35
2019-03-22T14:57:49.261Z,4.17
2019-03-22T15:00:18.923Z,2.60
2019-03-22T15:02:49.170Z,3.22
2019-03-22T15:05:19.502Z,2.95
2019-03-22T15:07:48.889Z,2.70
2019-03-22T15:10:19.218Z,2.72
2019-03-22T15:12:49.548Z,3.10
2019-03-22T15:15:38.792Z,3.10
2019-03-22T15:18:30.268Z,3.08
2019-03-22T15:21:11.973Z,4.17
2019-03-22T15:24:03.686Z,3.25
2019-03-22T15:27:01.466Z,3.52
2019-03-22T15:29:59.306Z,3.17
2019-03-22T15:32:37.477Z,3.40
2019-03-22T15:35:36.084Z,3.35
2019-03-22T15:38:25.267Z,3.72
2019-03-22T15:40:55.679Z,3.37
2019-03-22T15:43:26.152Z,3.15
2019-03-22T15:45:57.571Z,3.62
2019-03-22T15:48:27.942Z,3.50
2019-03-22T15:50:58.226Z,4.35
2019-03-22T15:53:28.550Z,4.80
2019-03-22T15:55:58.842Z,4.22
2019-03-22T15:58:28.591Z,3.85
2019-03-22T16:00:58.854Z,3.95
2019-03-22T16:03:29.248Z,3.80
2019-03-22T16:05:59.552Z,4.17
2019-03-22T16:08:29.914Z,4.20
2019-03-22T16:11:01.497Z,4.60
2019-03-22T16:13:31.802Z,4.50
2019-03-22T16:16:02.482Z,4.23
2019-03-22T16:18:33.173Z,4.70
2019-03-22T16:21:04.246Z,4.50
2019-03-22T16:23:34.614Z,4.30
2019-03-22T16:26:05.092Z,4.47
2019-03-22T16:28:35.294Z,4.20
2019-03-22T16:31:05.839Z,4.37
2019-03-22T16:33:36.071Z,4.17
2019-03-22T16:36:06.365Z,4.30
2019-03-22T16:38:36.916Z,4.10
2019-03-22T16:41:06.248Z,4.13
2019-03-22T16:43:35.545Z,3.90
2019-03-22T16:46:05.850Z,3.90
2019-03-22T16:48:36.262Z,3.77
2019-03-22T16:51:06.736Z,3.90
2019-03-22T16:53:37.404Z,3.93
2019-03-22T16:56:07.703Z,4.23
2019-03-22T16:58:37.160Z,4.30
2019-03-22T17:01:07.947Z,5.23
2019-03-22T17:03:37.390Z,4.87
2019-03-22T17:06:07.730Z,4.73
2019-03-22T17:08:38.230Z,6.20
2019-03-22T17:11:10.508Z,5.10
2019-03-22T17:13:42.199Z,5.27
2019-03-22T17:16:13.324Z,5.40
2019-03-22T17:18:43.689Z,5.47
2019-03-22T17:21:14.090Z,6.17
2019-03-22T17:23:43.492Z,6.73
2019-03-22T17:26:14.229Z,5.90
2019-03-22T17:28:48.364Z,5.63
2019-03-22T17:31:18.587Z,5.93
2019-03-22T17:33:49.041Z,5.97
2019-03-22T17:36:21.988Z,6.60
2019-03-22T17:38:52.589Z,7.30
2019-03-22T17:41:22.929Z,6.97
2019-03-22T17:43:53.618Z,6.97
2019-03-22T17:46:23.976Z,6.93
2019-03-22T17:48:54.251Z,8.17
2019-03-22T17:51:24.623Z,7.60
2019-03-22T17:53:55.262Z,7.70
2019-03-22T17:56:25.541Z,8.63
2019-03-22T17:58:58.486Z,7.97
2019-03-22T18:01:28.940Z,8.20
2019-03-22T18:03:59.479Z,8.90
2019-03-22T18:06:29.786Z,14.83
2019-03-22T18:09:00.076Z,15.17
2019-03-22T18:11:30.585Z,12.50
2019-03-22T18:14:01.033Z,11.53
2019-03-22T18:16:30.485Z,10.10
2019-03-22T18:19:03.317Z,11.00
2019-03-22T18:21:32.718Z,11.97
2019-03-22T18:24:02.093Z,16.57
2019-03-22T18:26:32.464Z,17.60
2019-03-22T18:29:02.896Z,16.93
2019-03-22T18:31:33.374Z,21.53
2019-03-22T18:34:03.758Z,21.83
2019-03-22T18:36:33.161Z,16.23
2019-03-22T18:39:06.718Z,12.20
2019-03-22T18:41:36.173Z,19.53
2019-03-22T18:44:06.526Z,14.60
2019-03-22T18:46:37.068Z,10.80
2019-03-22T18:49:07.943Z,8.87
2019-03-22T18:51:38.448Z,8.97
2019-03-22T18:54:10.153Z,11.10
2019-03-22T18:56:42.488Z,11.93
2019-03-22T18:59:15.871Z,10.97
2019-03-22T19:01:47.262Z,13.33
2019-03-22T19:04:19.207Z,11.97
2019-03-22T19:06:50.810Z,12.50
2019-03-22T19:09:22.171Z,12.97
2019-03-22T19:11:52.639Z,14.10
2019-03-22T19:14:21.991Z,14.00
2019-03-22T19:16:52.614Z,16.20
2019-03-22T19:19:25.693Z,14.73
2019-03-22T19:21:59.313Z,13.40
2019-03-22T19:24:30.211Z,11.60
2019-03-22T19:27:00.787Z,12.13
2019-03-22T19:29:37.001Z,12.10
2019-03-22T19:32:13.377Z,11.83
2019-03-22T19:35:02.433Z,12.97
2019-03-22T19:37:33.058Z,12.20
2019-03-22T19:40:08.347Z,13.63
2019-03-22T19:42:40.311Z,13.40
2019-03-22T19:45:09.904Z,14.10
2019-03-22T19:47:40.406Z,15.87
2019-03-22T19:50:11.146Z,17.57
2019-03-22T19:55:29.397Z,16.67
2019-03-22T19:58:01.832Z,15.53
2019-03-22T20:00:32.443Z,14.43
2019-03-22T20:03:06.512Z,14.67
2019-03-22T20:05:36.155Z,12.83
2019-03-22T20:08:12.785Z,16.37
2019-03-22T20:10:42.895Z,14.73
2019-03-22T20:13:18.156Z,14.63
2019-03-22T20:15:47.600Z,15.33
2019-03-22T20:18:18.268Z,15.40
2019-03-22T20:20:51.558Z,12.53
2019-03-22T20:23:22.053Z,13.37
2019-03-22T20:25:52.786Z,16.63
2019-03-22T20:28:25.557Z,24.03
2019-03-22T20:30:58.966Z,24.30
2019-03-22T20:33:33.272Z,34.20
2019-03-22T20:36:06.236Z,34.43
2019-03-22T20:38:36.846Z,29.20
2019-03-22T20:41:07.518Z,16.17
2019-03-22T20:43:39.633Z,12.13
2019-03-22T20:46:14.128Z,13.47
2019-03-22T20:48:45.232Z,16.00
2019-03-22T20:51:15.927Z,14.03
2019-03-22T20:53:51.227Z,16.20
2019-03-22T20:56:29.046Z,15.40
2019-03-22T20:59:32.425Z,15.57
2019-03-22T21:02:08.403Z,18.00
2019-03-22T21:04:43.636Z,21.33
2019-03-22T21:07:19.501Z,24.97
2019-03-22T21:09:57.409Z,21.13
2019-03-22T21:12:28.094Z,16.93
2019-03-22T21:14:59.894Z,17.80
2019-03-22T21:17:40.653Z,18.67
2019-03-22T21:20:11.848Z,21.27
2019-03-22T21:22:43.736Z,28.93
2019-03-22T21:25:15.677Z,40.10
2019-03-22T21:27:50.348Z,36.17
2019-03-22T21:30:22.519Z,39.33
2019-03-22T21:32:53.428Z,37.57
2019-03-22T21:35:37.159Z,37.60
2019-03-22T21:38:10.342Z,38.53
2019-03-22T21:40:33.636Z,30.87
2019-03-22T21:43:17.894Z,29.00
2019-03-22T21:45:45.623Z,27.10
2019-03-22T21:48:17.520Z,29.83
2019-03-22T21:50:48.072Z,32.50
2019-03-22T21:53:20.138Z,38.80
2019-03-22T21:55:54.294Z,46.63
2019-03-22T21:58:26.490Z,38.30
2019-03-22T22:00:57.690Z,24.93
2019-03-22T22:03:31.063Z,25.30
2019-03-22T22:06:01.688Z,21.80
2019-03-22T22:08:34.134Z,21.57
2019-03-22T22:11:04.986Z,20.27
2019-03-22T22:13:35.551Z,20.07
2019-03-22T22:16:10.883Z,20.07
2019-03-22T22:18:40.333Z,18.90
2019-03-22T22:21:10.810Z,18.10
2019-03-22T22:23:42.782Z,16.90
2019-03-22T22:26:17.617Z,18.07
2019-03-22T22:28:47.962Z,17.17
2019-03-22T22:31:18.739Z,17.30
2019-03-22T22:33:50.810Z,17.07
2019-03-22T22:36:22.962Z,17.23
2019-03-22T22:38:52.257Z,16.50
2019-03-22T22:41:22.823Z,19.23
2019-03-22T22:43:53.370Z,19.23
2019-03-22T22:46:25.163Z,16.60
2019-03-22T22:48:58.169Z,19.17
2019-03-22T22:51:31.067Z,17.97
2019-03-22T22:54:01.733Z,18.40
2019-03-22T22:56:33.388Z,19.37
2019-03-22T22:59:05.124Z,20.00
2019-03-22T23:01:36.959Z,20.70
2019-03-22T23:04:07.372Z,20.07
2019-03-22T23:06:42.351Z,21.43
2019-03-22T23:09:18.004Z,20.30
2019-03-22T23:11:50.548Z,21.30
2019-03-22T23:14:20.517Z,21.37
2019-03-22T23:16:51.149Z,21.77
2019-03-22T23:19:21.548Z,20.40
2019-03-22T23:21:52.012Z,21.37
2019-03-22T23:24:22.445Z,22.40
2019-03-22T23:26:52.912Z,23.17
2019-03-22T23:29:23.179Z,24.07
2019-03-22T23:31:56.204Z,23.53
2019-03-22T23:34:26.572Z,24.67
2019-03-22T23:36:57.038Z,24.13
2019-03-22T23:39:27.599Z,25.17
2019-03-22T23:41:56.891Z,23.20
2019-03-22T23:44:27.362Z,21.80
2019-03-22T23:46:57.883Z,24.27
2019-03-22T23:49:30.562Z,23.17
2019-03-22T23:52:03.213Z,23.80
2019-03-22T23:54:33.659Z,23.80
2019-03-22T23:57:03.074Z,24.67
2019-03-22T23:59:33.490Z,24.67
